Time;durP1;ratioP1;P1;durP2;ratioP2;P2;SDS_P1;SDS_P2;PMS_P1;PMS_P2;Temp;Humidity;BMP_temperature;BMP_pressure;BME280_temperature;BME280_humidity;BME280_pressure;Samples;Min_cycle;Max_cycle;Signal;HPM_P1;HPM_P2
2022/05/23 00:01:23;;;;;;;3.47;3.10;;;21.90;66.80;;;;;;4996399;28;20526;-65
2022/05/23 00:03:52;;;;;;;5.10;3.40;;;21.90;66.80;;;;;;4996382;28;21033;-65
2022/05/23 00:06:21;;;;;;;3.97;3.60;;;21.90;66.90;;;;;;4996657;28;20949;-65
2022/05/23 00:08:50;;;;;;;3.60;3.20;;;21.90;66.80;;;;;;4996542;28;20468;-65
2022/05/23 00:11:17;;;;;;;4.30;2.80;;;21.90;66.70;;;;;;4996672;28;20494;-65
2022/05/23 00:13:45;;;;;;;4.43;2.90;;;21.90;66.70;;;;;;4996042;28;21029;-65
2022/05/23 00:16:18;;;;;;;3.60;3.20;;;21.90;66.60;;;;;;4996622;28;20831;-65
2022/05/23 00:18:45;;;;;;;3.03;2.83;;;21.90;66.90;;;;;;4996246;28;20524;-65
2022/05/23 00:21:13;;;;;;;4.57;3.07;;;21.80;66.70;;;;;;4996273;28;20448;-65
2022/05/23 00:23:40;;;;;;;4.10;3.50;;;21.80;66.70;;;;;;4996083;28;20824;-66
2022/05/23 00:26:06;;;;;;;4.60;3.60;;;21.80;66.50;;;;;;4996328;28;20470;-67
2022/05/23 00:28:34;;;;;;;4.13;3.13;;;21.80;67.40;;;;;;4996396;28;20468;-67
2022/05/23 00:31:00;;;;;;;4.10;2.80;;;21.80;66.50;;;;;;4996288;28;20470;-67
2022/05/23 00:36:13;;;;;;;6.00;3.10;;;21.80;66.00;;;;;;4996600;28;20479;-65
2022/05/23 00:38:39;;;;;;;4.33;2.80;;;21.70;65.80;;;;;;4996109;28;20878;-65
2022/05/23 00:44:03;;;;;;;4.87;2.50;;;21.70;65.90;;;;;;4958575;28;20502;-65
2022/05/23 00:46:30;;;;;;;4.43;3.00;;;21.70;65.70;;;;;;4996136;28;20790;-65
2022/05/23 00:48:59;;;;;;;7.90;3.13;;;21.70;65.60;;;;;;4995893;28;20467;-65
2022/05/23 00:51:29;;;;;;;3.90;3.07;;;21.70;65.50;;;;;;4996045;28;20464;-65
2022/05/23 00:53:59;;;;;;;3.93;2.27;;;21.70;65.50;;;;;;4996011;28;20451;-65
2022/05/23 00:56:30;;;;;;;5.50;2.90;;;21.70;65.60;;;;;;4995856;28;20443;-65
2022/05/23 00:59:02;;;;;;;2.60;2.40;;;21.60;65.40;;;;;;4995692;28;20515;-65
2022/05/23 01:01:33;;;;;;;2.90;2.53;;;21.60;65.30;;;;;;4995727;28;20475;-65
2022/05/23 01:04:00;;;;;;;3.77;2.60;;;21.70;65.80;;;;;;4995871;28;20463;-65
2022/05/23 01:06:28;;;;;;;2.90;2.60;;;21.60;66.10;;;;;;4995685;28;20459;-65
2022/05/23 01:08:57;;;;;;;2.33;2.23;;;21.60;66.10;;;;;;4996052;28;20460;-65
2022/05/23 01:11:25;;;;;;;3.63;2.67;;;21.60;66.40;;;;;;4995745;28;20453;-65
2022/05/23 01:13:53;;;;;;;2.80;2.33;;;21.60;66.10;;;;;;4995627;28;20455;-65
2022/05/23 01:16:21;;;;;;;3.00;2.30;;;21.60;66.10;;;;;;4995651;28;20945;-65
2022/05/23 01:18:47;;;;;;;6.07;2.90;;;21.60;65.90;;;;;;4996445;28;20488;-65
2022/05/23 01:21:20;;;;;;;3.70;2.53;;;21.60;66.00;;;;;;4996280;28;20452;-65
2022/05/23 01:23:55;;;;;;;3.50;2.70;;;21.60;65.80;;;;;;4996657;28;20428;-67
2022/05/23 01:26:24;;;;;;;3.30;2.53;;;21.50;65.30;;;;;;4996131;28;20440;-68
2022/05/23 01:28:51;;;;;;;3.83;2.70;;;21.50;64.80;;;;;;4996284;28;20470;-67
2022/05/23 01:31:18;;;;;;;3.17;2.30;;;21.50;64.90;;;;;;4995591;28;20495;-67
2022/05/23 01:33:45;;;;;;;4.83;2.70;;;21.50;65.20;;;;;;4994968;28;20448;-68
2022/05/23 01:36:13;;;;;;;2.93;2.40;;;21.50;65.40;;;;;;4995054;28;20448;-68
2022/05/23 01:38:40;;;;;;;2.70;2.50;;;21.50;65.30;;;;;;4994480;28;20488;-67
2022/05/23 01:41:07;;;;;;;2.93;2.60;;;21.50;65.40;;;;;;4995054;28;20823;-67
2022/05/23 01:43:35;;;;;;;2.50;2.30;;;21.50;65.30;;;;;;4994923;28;20452;-66
2022/05/23 01:46:02;;;;;;;2.77;2.47;;;21.40;64.80;;;;;;4994960;28;20448;-65
2022/05/23 01:48:29;;;;;;;3.60;2.50;;;21.40;64.10;;;;;;4994888;28;20477;-65
2022/05/23 01:50:56;;;;;;;4.10;2.90;;;21.40;64.10;;;;;;4994994;28;20456;-65
2022/05/23 01:53:23;;;;;;;3.50;2.40;;;21.40;64.40;;;;;;4995183;28;20527;-67
2022/05/23 01:55:49;;;;;;;8.10;2.53;;;21.40;64.40;;;;;;4994638;28;20452;-65
2022/05/23 02:01:12;;;;;;;3.57;2.83;;;21.30;64.20;;;;;;4995240;28;20496;-65
2022/05/23 02:01:15;;;;;;;3.50;3.20;;;21.40;63.60;;;;;;4995435;28;20502;-65
2022/05/23 02:03:43;;;;;;;3.07;2.77;;;21.30;63.40;;;;;;4996748;28;20483;-65
2022/05/23 02:06:09;;;;;;;3.60;2.63;;;21.30;63.50;;;;;;4998045;28;20449;-65
2022/05/23 02:08:36;;;;;;;6.93;3.90;;;21.30;63.30;;;;;;4998745;28;20872;-65
2022/05/23 02:11:05;;;;;;;4.43;3.00;;;21.30;62.70;;;;;;4995563;28;20448;-65
2022/05/23 02:13:33;;;;;;;6.90;3.40;;;21.30;62.40;;;;;;4994458;28;20456;-65
2022/05/23 02:15:59;;;;;;;9.60;3.73;;;21.30;62.60;;;;;;4994395;28;20448;-65
2022/05/23 02:18:28;;;;;;;4.80;3.90;;;21.30;62.30;;;;;;4994279;28;20492;-65
2022/05/23 02:20:55;;;;;;;6.70;3.33;;;21.20;61.90;;;;;;4994346;28;20444;-65
2022/05/23 02:23:21;;;;;;;3.80;2.73;;;21.30;62.00;;;;;;4994342;28;20441;-65
2022/05/23 02:25:48;;;;;;;4.80;3.10;;;21.20;61.80;;;;;;4994282;28;20451;-65
2022/05/23 02:28:15;;;;;;;4.93;2.87;;;21.20;61.20;;;;;;4994175;28;20464;-66
2022/05/23 02:30:42;;;;;;;5.67;3.03;;;21.20;61.50;;;;;;4994211;28;20444;-66
2022/05/23 02:33:09;;;;;;;5.13;2.97;;;21.20;61.50;;;;;;4994233;28;20444;-65
2022/05/23 02:35:37;;;;;;;5.77;2.67;;;21.10;61.00;;;;;;4994198;28;20455;-65
2022/05/23 02:38:04;;;;;;;2.73;2.50;;;21.10;60.80;;;;;;4993975;28;20487;-66
2022/05/23 02:40:31;;;;;;;5.20;2.93;;;21.10;61.20;;;;;;4993903;28;20950;-66
2022/05/23 02:42:58;;;;;;;3.20;2.40;;;21.10;60.80;;;;;;4994005;28;20942;-65
2022/05/23 02:45:25;;;;;;;2.83;2.20;;;21.10;61.00;;;;;;4994336;28;20452;-65
2022/05/23 02:47:51;;;;;;;4.00;2.07;;;21.10;61.60;;;;;;4994012;28;21003;-66
2022/05/23 02:50:18;;;;;;;2.93;2.63;;;21.10;61.60;;;;;;4994288;28;20451;-65
2022/05/23 02:52:46;;;;;;;3.17;2.87;;;21.00;61.50;;;;;;4994365;28;20444;-65
2022/05/23 02:55:13;;;;;;;4.60;2.17;;;21.00;61.70;;;;;;4994216;28;20467;-66
2022/05/23 02:57:40;;;;;;;3.00;2.00;;;21.00;61.40;;;;;;4994083;28;20487;-66
2022/05/23 03:00:09;;;;;;;2.90;2.33;;;21.10;61.70;;;;;;4994279;28;20464;-66
2022/05/23 03:05:20;;;;;;;3.20;2.43;;;21.10;61.60;;;;;;4994336;28;20459;-65
2022/05/23 03:07:48;;;;;;;2.20;2.00;;;21.10;61.70;;;;;;4996904;28;20467;-65
2022/05/23 03:10:15;;;;;;;3.63;2.70;;;21.00;61.20;;;;;;4997977;28;20451;-64
2022/05/23 03:12:42;;;;;;;3.63;2.47;;;21.00;60.90;;;;;;4998177;28;20455;-64
2022/05/23 03:15:10;;;;;;;2.90;2.60;;;21.00;60.70;;;;;;4998007;28;20501;-64
2022/05/23 03:17:36;;;;;;;3.80;2.13;;;21.00;60.20;;;;;;4997581;28;20491;-64
2022/05/23 03:20:04;;;;;;;2.57;2.30;;;21.00;60.20;;;;;;4997904;28;20436;-64
2022/05/23 03:28:02;;;;;;;6.53;2.73;;;20.90;59.90;;;;;;4997239;28;20527;-64
2022/05/23 03:30:29;;;;;;;3.63;2.17;;;20.90;60.40;;;;;;4997403;28;20555;-64
2022/05/23 03:32:57;;;;;;;4.60;2.57;;;20.90;60.50;;;;;;4997404;28;20449;-64
2022/05/23 03:35:24;;;;;;;4.47;2.63;;;20.90;60.40;;;;;;4997379;28;20869;-64
2022/05/23 03:37:50;;;;;;;5.90;2.90;;;20.90;60.70;;;;;;4996852;28;21012;-64
2022/05/23 03:40:19;;;;;;;2.93;2.20;;;20.90;60.20;;;;;;4997266;28;20448;-64
2022/05/23 03:42:45;;;;;;;2.53;2.33;;;20.90;60.30;;;;;;4997310;28;20447;-64
2022/05/23 03:45:12;;;;;;;3.60;2.40;;;20.90;60.60;;;;;;4996936;28;20862;-64
2022/05/23 03:47:39;;;;;;;3.40;2.87;;;20.90;60.80;;;;;;4997089;28;20479;-64
2022/05/23 03:50:07;;;;;;;4.17;2.80;;;20.80;59.90;;;;;;4997198;28;20510;-64
2022/05/23 03:52:36;;;;;;;7.23;3.00;;;20.80;60.60;;;;;;4997114;28;20840;-64
2022/05/23 03:55:03;;;;;;;5.00;2.50;;;20.80;61.20;;;;;;4997009;28;20456;-66
2022/05/23 03:57:31;;;;;;;4.37;2.97;;;20.80;61.50;;;;;;4996846;28;20459;-64
2022/05/23 03:59:59;;;;;;;4.27;2.57;;;20.80;61.90;;;;;;4996752;28;20465;-64
2022/05/23 04:02:26;;;;;;;5.40;2.40;;;20.80;62.40;;;;;;4996949;28;20458;-64
2022/05/23 04:04:52;;;;;;;3.30;2.43;;;20.80;62.50;;;;;;4996568;28;21053;-64
2022/05/23 04:07:19;;;;;;;3.90;2.67;;;20.80;62.00;;;;;;4996941;28;20459;-64
2022/05/23 04:09:46;;;;;;;2.93;2.60;;;20.80;62.00;;;;;;4996428;28;20810;-64
2022/05/23 04:12:12;;;;;;;3.77;2.07;;;20.80;61.80;;;;;;4996717;28;20452;-64
2022/05/23 04:14:40;;;;;;;4.93;2.33;;;20.80;61.80;;;;;;4996646;28;20455;-64
2022/05/23 04:17:08;;;;;;;5.00;2.90;;;20.90;61.50;;;;;;4996485;28;20464;-64
2022/05/23 04:19:35;;;;;;;3.17;2.40;;;20.80;60.90;;;;;;4996482;28;20487;-64
2022/05/23 04:22:02;;;;;;;4.10;2.70;;;20.80;60.50;;;;;;4996566;28;20459;-64
2022/05/23 04:24:29;;;;;;;3.07;2.57;;;20.80;60.60;;;;;;4996538;28;20445;-65
2022/05/23 04:26:57;;;;;;;4.60;2.30;;;20.80;60.20;;;;;;4996178;28;20511;-65
2022/05/23 04:29:25;;;;;;;2.40;2.20;;;20.80;60.40;;;;;;4996521;28;20461;-66
2022/05/23 04:31:53;;;;;;;3.93;2.43;;;20.80;60.60;;;;;;4997092;28;20449;-65
2022/05/23 04:37:04;;;;;;;4.13;2.10;;;20.70;59.70;;;;;;4996922;28;20420;-65
2022/05/23 04:39:31;;;;;;;2.67;2.47;;;20.70;59.60;;;;;;4996900;28;20488;-65
2022/05/23 04:41:57;;;;;;;7.57;2.77;;;20.70;59.80;;;;;;4998331;28;20429;-65
2022/05/23 04:44:24;;;;;;;4.63;2.73;;;20.70;59.70;;;;;;4999102;28;20459;-65
2022/05/23 04:49:44;;;;;;;4.07;2.60;;;20.70;60.50;;;;;;4996305;28;20444;-65
2022/05/23 04:52:13;;;;;;;3.90;2.30;;;20.70;60.80;;;;;;4997144;28;20486;-66
2022/05/23 04:54:41;;;;;;;2.50;2.30;;;20.70;60.70;;;;;;4997307;28;20455;-66
2022/05/23 04:57:09;;;;;;;4.20;3.03;;;20.70;59.60;;;;;;4997616;28;20451;-66
2022/05/23 04:59:36;;;;;;;5.33;2.60;;;20.70;60.00;;;;;;4997786;28;20492;-66
2022/05/23 05:02:05;;;;;;;4.47;2.30;;;20.70;59.90;;;;;;4996852;28;20460;-66
2022/05/23 05:04:33;;;;;;;4.10;2.73;;;20.70;59.90;;;;;;4997008;28;20459;-66
2022/05/23 05:07:00;;;;;;;3.20;2.60;;;20.70;59.50;;;;;;4995768;28;20447;-68
2022/05/23 05:09:28;;;;;;;4.10;2.60;;;20.80;59.80;;;;;;4995259;28;20868;-66
2022/05/23 05:11:55;;;;;;;5.70;2.37;;;20.80;59.60;;;;;;4995568;28;20460;-67
2022/05/23 05:14:21;;;;;;;6.10;2.40;;;20.80;59.90;;;;;;4995757;28;20440;-67
2022/05/23 05:16:48;;;;;;;6.43;2.80;;;20.80;60.40;;;;;;4995408;28;20451;-67
2022/05/23 05:19:16;;;;;;;5.60;2.33;;;20.90;59.60;;;;;;4995078;28;20495;-67
2022/05/23 05:21:43;;;;;;;3.90;2.37;;;20.90;59.60;;;;;;4995414;28;20558;-67
2022/05/23 05:24:10;;;;;;;3.20;2.20;;;21.00;59.70;;;;;;4995303;28;20455;-67
2022/05/23 05:26:36;;;;;;;3.00;2.73;;;21.00;59.50;;;;;;4994903;28;20463;-66
2022/05/23 05:29:03;;;;;;;6.20;2.80;;;21.10;59.50;;;;;;4994489;28;20465;-67
2022/05/23 05:31:43;;;;;;;3.30;2.30;;;21.10;59.60;;;;;;4995133;28;20448;-66
2022/05/23 05:34:17;;;;;;;4.43;2.50;;;21.20;59.00;;;;;;4995180;28;20451;-67
2022/05/23 05:36:48;;;;;;;3.23;2.57;;;21.30;59.20;;;;;;4995148;28;20435;-67
2022/05/23 05:39:19;;;;;;;2.20;2.00;;;21.30;59.20;;;;;;4994880;28;20499;-66
2022/05/23 05:42:03;;;;;;;2.77;2.30;;;21.40;59.30;;;;;;4995080;28;20432;-67
2022/05/23 05:44:34;;;;;;;2.37;2.17;;;21.40;59.10;;;;;;4995034;28;20432;-67
2022/05/23 05:47:05;;;;;;;3.83;3.00;;;21.50;58.80;;;;;;4995045;28;20447;-66
2022/05/23 05:49:35;;;;;;;3.43;2.10;;;21.50;58.50;;;;;;4995211;28;20464;-67
2022/05/23 05:52:05;;;;;;;6.30;2.13;;;21.50;58.60;;;;;;4995264;28;20502;-67
2022/05/23 05:54:33;;;;;;;2.33;2.00;;;21.50;58.60;;;;;;4995011;28;20447;-67
2022/05/23 05:57:02;;;;;;;4.37;2.50;;;21.50;58.60;;;;;;4994797;28;20440;-67
2022/05/23 05:59:30;;;;;;;2.20;2.00;;;21.50;57.80;;;;;;4994405;28;20487;-66
2022/05/23 06:01:56;;;;;;;2.97;1.93;;;21.50;58.30;;;;;;5014220;28;20455;-67
2022/05/23 06:04:23;;;;;;;4.00;1.90;;;21.50;58.40;;;;;;5014307;28;20439;-67
2022/05/23 06:12:19;;;;;;;4.13;2.57;;;21.50;57.60;;;;;;5014271;28;20408;-67
2022/05/23 06:14:46;;;;;;;2.07;1.93;;;21.50;57.80;;;;;;5014079;28;20439;-67
2022/05/23 06:17:13;;;;;;;4.60;2.70;;;21.60;57.50;;;;;;5013766;28;20956;-66
2022/05/23 06:19:41;;;;;;;4.23;2.43;;;21.70;57.90;;;;;;5014013;28;20479;-66
2022/05/23 06:22:08;;;;;;;4.27;2.70;;;21.80;57.10;;;;;;5014081;28;20458;-67
2022/05/23 06:24:36;;;;;;;2.50;2.30;;;21.90;56.60;;;;;;5013651;28;20454;-67
2022/05/23 06:27:06;;;;;;;4.87;2.40;;;22.10;56.90;;;;;;5013594;28;20976;-67
2022/05/23 06:29:33;;;;;;;3.87;2.13;;;22.20;56.90;;;;;;5013568;28;20546;-67
2022/05/23 06:32:01;;;;;;;5.80;2.90;;;22.30;57.00;;;;;;5014288;28;20471;-65
2022/05/23 06:34:28;;;;;;;5.63;2.30;;;22.50;57.10;;;;;;5013643;28;20956;-66
2022/05/23 06:36:54;;;;;;;3.93;2.70;;;22.70;57.00;;;;;;5013899;28;20451;-66
2022/05/23 06:39:21;;;;;;;5.23;2.20;;;22.80;56.20;;;;;;5013587;28;20479;-67
2022/05/23 06:41:50;;;;;;;2.90;2.47;;;22.80;55.70;;;;;;5013411;28;20451;-66
2022/05/23 06:44:16;;;;;;;3.00;2.20;;;22.90;55.50;;;;;;5013763;28;20459;-66
2022/05/23 06:46:43;;;;;;;2.37;1.87;;;23.00;55.00;;;;;;5013730;28;20452;-66
2022/05/23 06:49:10;;;;;;;3.47;2.20;;;23.10;54.50;;;;;;5013278;28;20992;-66
2022/05/23 06:51:37;;;;;;;3.10;2.43;;;23.20;54.70;;;;;;5013678;28;20447;-66
2022/05/23 06:54:04;;;;;;;3.70;2.20;;;23.20;54.40;;;;;;5013658;28;20455;-66
2022/05/23 06:56:30;;;;;;;6.20;2.50;;;23.20;54.70;;;;;;5013654;28;20451;-66
2022/05/23 06:58:58;;;;;;;4.60;2.77;;;23.30;54.30;;;;;;5013480;28;20483;-69
2022/05/23 07:01:25;;;;;;;4.57;2.63;;;23.20;53.70;;;;;;5013340;28;20478;-67
2022/05/23 07:03:52;;;;;;;4.10;2.10;;;23.30;54.10;;;;;;5013520;28;20458;-68
2022/05/23 07:14:32;;;;;;;6.43;2.77;;;23.60;55.50;;;;;;5013969;28;20558;-68
2022/05/23 07:17:00;;;;;;;2.97;2.63;;;23.80;55.10;;;;;;5014545;28;20447;-67
2022/05/23 07:19:28;;;;;;;3.93;2.23;;;23.80;54.70;;;;;;5014687;28;20522;-66
2022/05/23 07:21:59;;;;;;;5.07;2.60;;;23.90;54.60;;;;;;5015694;28;20443;-67
2022/05/23 07:24:26;;;;;;;4.53;2.37;;;24.00;54.20;;;;;;5015985;28;20956;-67
2022/05/23 07:26:54;;;;;;;3.43;2.40;;;24.00;53.90;;;;;;5014861;28;20447;-67
2022/05/23 07:29:22;;;;;;;3.87;2.33;;;24.10;54.30;;;;;;5013308;28;20574;-67
2022/05/23 07:31:50;;;;;;;2.90;2.60;;;24.10;54.30;;;;;;5013261;28;20779;-67
2022/05/23 07:34:17;;;;;;;2.87;2.10;;;24.10;54.00;;;;;;5012948;28;20443;-67
2022/05/23 07:36:44;;;;;;;7.67;3.07;;;24.20;53.70;;;;;;5013219;28;20443;-67
2022/05/23 07:39:11;;;;;;;5.37;2.90;;;24.20;53.20;;;;;;5013056;28;20490;-67
2022/05/23 07:41:39;;;;;;;6.43;2.60;;;24.20;53.20;;;;;;5013218;28;20455;-67
2022/05/23 07:44:06;;;;;;;3.70;2.30;;;24.10;52.80;;;;;;5013230;28;20450;-67
2022/05/23 07:46:34;;;;;;;9.10;3.50;;;24.10;53.20;;;;;;5013186;28;20447;-67
2022/05/23 07:49:03;;;;;;;5.43;2.50;;;24.00;53.80;;;;;;5012682;28;20815;-67
2022/05/23 07:51:32;;;;;;;6.63;2.40;;;24.00;53.40;;;;;;5013164;28;20471;-67
2022/05/23 08:02:14;;;;;;;3.37;2.30;;;24.80;53.70;;;;;;5016264;28;20442;-67
2022/05/23 08:04:42;;;;;;;2.70;1.93;;;25.20;52.70;;;;;;5016414;28;20447;-67
2022/05/23 08:07:10;;;;;;;4.60;2.73;;;25.50;51.90;;;;;;5016435;28;20431;-67
2022/05/23 08:09:38;;;;;;;4.63;2.50;;;25.70;51.40;;;;;;5016198;28;20459;-67
2022/05/23 08:12:06;;;;;;;2.80;2.60;;;25.80;50.80;;;;;;5016332;28;20447;-67
2022/05/23 08:14:33;;;;;;;4.97;2.93;;;26.00;50.00;;;;;;5016226;28;20452;-67
2022/05/23 08:17:00;;;;;;;6.07;2.87;;;26.00;49.30;;;;;;5016225;28;20466;-67
2022/05/23 08:19:27;;;;;;;3.83;2.40;;;26.00;49.30;;;;;;5015967;28;20864;-67
2022/05/23 08:21:58;;;;;;;4.67;2.70;;;25.90;48.80;;;;;;5016181;28;20455;-67
2022/05/23 08:24:24;;;;;;;5.10;2.70;;;25.80;49.20;;;;;;5016285;28;20434;-67
2022/05/23 08:26:53;;;;;;;2.73;2.40;;;25.70;49.70;;;;;;5016606;28;20455;-67
2022/05/23 08:29:19;;;;;;;4.10;2.60;;;25.60;49.30;;;;;;5016326;28;20467;-67
2022/05/23 08:31:47;;;;;;;4.30;2.50;;;25.50;50.20;;;;;;5016418;28;20447;-67
2022/05/23 08:34:15;;;;;;;6.53;2.33;;;25.50;50.70;;;;;;5015860;28;20450;-67
2022/05/23 08:36:42;;;;;;;6.07;2.53;;;25.50;50.90;;;;;;5016525;28;20455;-67
2022/05/23 08:39:10;;;;;;;4.40;2.30;;;25.60;51.00;;;;;;5015905;28;20483;-66
2022/05/23 08:41:39;;;;;;;5.43;2.43;;;25.60;49.90;;;;;;5016950;28;20466;-67
2022/05/23 08:44:16;;;;;;;3.43;1.80;;;25.70;49.80;;;;;;5017361;28;20456;-67
2022/05/23 08:46:56;;;;;;;3.33;2.17;;;25.70;48.90;;;;;;5017994;28;20445;-67
2022/05/23 08:49:36;;;;;;;3.80;2.50;;;25.60;49.10;;;;;;5017446;28;20467;-67
2022/05/23 08:52:10;;;;;;;2.80;2.30;;;25.40;49.10;;;;;;5016886;28;20431;-67
2022/05/23 08:54:47;;;;;;;4.20;2.20;;;25.40;49.10;;;;;;5015361;28;20923;-67
2022/05/23 08:57:22;;;;;;;2.40;2.20;;;25.40;49.40;;;;;;5015662;28;20440;-67
2022/05/23 08:59:52;;;;;;;3.80;2.33;;;25.50;49.50;;;;;;5011847;28;20496;-67
2022/05/23 09:02:33;;;;;;;3.63;2.27;;;25.50;49.40;;;;;;4995856;28;20444;-67
2022/05/23 09:05:04;;;;;;;5.93;2.63;;;25.60;49.10;;;;;;4994894;28;20432;-67
2022/05/23 09:07:39;;;;;;;8.23;2.20;;;25.60;49.90;;;;;;4995715;28;20788;-67
2022/05/23 09:10:13;;;;;;;2.97;1.80;;;25.70;49.60;;;;;;4995643;28;20428;-66
2022/05/23 09:12:40;;;;;;;3.10;2.33;;;25.90;50.20;;;;;;4995606;28;20427;-67
2022/05/23 09:15:07;;;;;;;3.83;2.30;;;26.00;50.20;;;;;;4995234;28;20811;-67
2022/05/23 09:17:42;;;;;;;3.80;2.10;;;26.20;49.90;;;;;;4995397;28;20467;-67
2022/05/23 09:20:13;;;;;;;3.97;2.27;;;26.40;49.40;;;;;;4995099;28;20820;-67
2022/05/23 09:22:47;;;;;;;6.50;2.50;;;26.60;49.50;;;;;;4995422;28;20436;-67
2022/05/23 09:25:17;;;;;;;4.57;2.30;;;26.60;48.20;;;;;;4995336;28;20496;-67
2022/05/23 09:27:48;;;;;;;3.90;2.53;;;26.60;48.40;;;;;;4995445;28;20464;-67
2022/05/23 09:30:19;;;;;;;5.53;3.37;;;26.60;48.50;;;;;;4995356;28;20447;-67
2022/05/23 09:32:51;;;;;;;3.93;2.73;;;26.60;48.50;;;;;;4995279;28;20442;-67
2022/05/23 09:35:20;;;;;;;3.13;2.50;;;26.60;48.50;;;;;;4995171;28;20444;-67
2022/05/23 09:38:03;;;;;;;7.00;2.47;;;26.70;48.80;;;;;;4995039;28;20472;-67
2022/05/23 09:40:35;;;;;;;4.33;2.37;;;26.90;48.70;;;;;;4995006;28;20988;-67
2022/05/23 09:49:05;;;;;;;2.93;2.30;;;27.90;47.10;;;;;;4994903;28;20466;-68
2022/05/23 09:51:32;;;;;;;3.57;2.63;;;28.30;45.80;;;;;;4995296;28;20429;-67
2022/05/23 09:54:03;;;;;;;6.23;2.80;;;28.40;43.90;;;;;;4995274;28;20810;-67
2022/05/23 09:56:38;;;;;;;5.77;2.67;;;28.30;44.20;;;;;;4995539;28;20432;-67
2022/05/23 09:59:08;;;;;;;3.87;2.00;;;28.20;45.00;;;;;;4997059;28;20475;-67
2022/05/23 10:01:35;;;;;;;6.63;3.13;;;28.10;45.30;;;;;;4998192;28;20448;-67
2022/05/23 10:04:02;;;;;;;8.83;2.70;;;28.00;44.80;;;;;;4996876;28;20840;-67
2022/05/23 10:06:37;;;;;;;4.47;2.33;;;27.70;44.80;;;;;;4994654;28;20452;-67
2022/05/23 10:09:08;;;;;;;3.87;2.37;;;27.40;45.50;;;;;;4994465;28;20467;-67
2022/05/23 10:11:38;;;;;;;5.20;2.60;;;27.30;46.30;;;;;;4994663;28;20519;-67
2022/05/23 10:14:07;;;;;;;4.13;2.60;;;27.20;46.30;;;;;;4994295;28;20527;-67
2022/05/23 10:16:46;;;;;;;5.13;2.57;;;27.20;46.60;;;;;;4994224;28;20455;-67
2022/05/23 10:19:26;;;;;;;5.60;2.30;;;27.20;46.90;;;;;;4994206;28;21012;-67
2022/05/23 10:22:09;;;;;;;4.87;2.37;;;27.30;47.30;;;;;;4994552;28;20431;-67
2022/05/23 10:24:39;;;;;;;4.23;2.80;;;27.40;46.80;;;;;;4994729;28;20436;-67
2022/05/23 10:27:15;;;;;;;3.73;3.33;;;27.70;46.30;;;;;;4994349;28;20805;-67
2022/05/23 10:29:51;;;;;;;4.53;3.10;;;28.00;45.60;;;;;;4994330;28;20472;-67
2022/05/23 10:32:28;;;;;;;7.47;2.93;;;28.30;44.80;;;;;;4994305;28;20432;-67
2022/05/23 10:35:02;;;;;;;8.23;2.87;;;28.80;43.70;;;;;;4994245;28;20440;-67
2022/05/23 10:37:36;;;;;;;4.83;3.03;;;29.20;43.00;;;;;;4994215;28;20459;-67
2022/05/23 10:42:53;;;;;;;5.20;2.60;;;30.50;42.20;;;;;;4994231;28;20408;-67
2022/05/23 10:45:25;;;;;;;5.07;2.67;;;31.20;41.00;;;;;;4993923;28;20922;-67
2022/05/23 10:48:28;;;;;;;4.03;2.63;;;31.80;39.70;;;;;;4994147;28;20464;-67
2022/05/23 10:50:58;;;;;;;4.63;3.33;;;32.40;38.80;;;;;;4969705;28;20454;-67
2022/05/23 10:53:38;;;;;;;6.43;2.93;;;33.00;36.30;;;;;;4994113;28;20459;-67
2022/05/23 10:56:21;;;;;;;3.80;3.20;;;33.40;35.50;;;;;;4994149;28;20439;-68
2022/05/23 10:58:55;;;;;;;4.70;3.43;;;33.60;34.50;;;;;;4993885;28;20471;-67
2022/05/23 11:01:40;;;;;;;4.60;2.90;;;33.60;33.80;;;;;;4993879;28;20494;-67
2022/05/23 11:04:16;;;;;;;4.20;3.50;;;33.50;34.30;;;;;;4994200;28;20436;-68
2022/05/23 11:06:58;;;;;;;9.20;3.40;;;33.20;34.40;;;;;;4994256;28;20435;-68
2022/05/23 11:09:36;;;;;;;6.13;3.00;;;32.80;34.80;;;;;;4993994;28;20980;-67
2022/05/23 11:12:15;;;;;;;4.10;3.27;;;32.50;35.50;;;;;;4993987;28;20932;-67
2022/05/23 11:14:53;;;;;;;7.00;2.77;;;32.60;36.30;;;;;;4993994;28;20455;-68
2022/05/23 11:17:33;;;;;;;7.03;2.80;;;33.10;35.30;;;;;;4993884;28;20840;-68
2022/05/23 11:20:10;;;;;;;3.10;2.73;;;33.70;33.60;;;;;;4993830;28;20499;-69
2022/05/23 11:22:42;;;;;;;4.60;2.83;;;34.40;33.50;;;;;;4993907;28;20898;-69
2022/05/23 11:25:21;;;;;;;6.03;3.13;;;34.90;33.00;;;;;;4993870;28;20440;-68
2022/05/23 11:33:46;;;;;;;3.17;2.40;;;35.70;30.90;;;;;;4997564;28;20411;-66
2022/05/23 11:36:18;;;;;;;2.80;2.17;;;36.00;31.30;;;;;;4997441;28;20535;-66
2022/05/23 11:38:47;;;;;;;4.43;2.90;;;36.60;29.80;;;;;;4997332;28;20512;-66
2022/05/23 11:41:35;;;;;;;5.87;2.40;;;37.00;29.70;;;;;;4997261;28;20499;-66
2022/05/23 11:44:35;;;;;;;5.27;2.50;;;37.30;29.20;;;;;;4997292;28;20193;-66
2022/05/23 11:47:18;;;;;;;2.97;2.67;;;37.50;29.20;;;;;;4996905;28;20526;-66
2022/05/23 11:49:48;;;;;;;3.03;2.33;;;37.70;28.00;;;;;;4997143;28;20244;-66
2022/05/23 11:52:27;;;;;;;3.80;2.73;;;38.10;27.70;;;;;;4997155;28;20626;-66
2022/05/23 11:54:54;;;;;;;4.90;2.45;;;38.40;27.30;;;;;;4997152;28;20208;-66
2022/05/23 11:57:35;;;;;;;5.13;2.30;;;38.80;27.80;;;;;;4997163;28;20204;-66
2022/05/23 12:00:28;;;;;;;4.63;2.53;;;39.60;26.80;;;;;;4996688;28;20224;-66
2022/05/23 12:03:09;;;;;;;5.00;2.10;;;40.50;26.10;;;;;;4996666;28;20674;-63
2022/05/23 12:05:36;;;;;;;3.58;2.30;;;40.90;25.30;;;;;;4997072;28;20193;-64
2022/05/23 12:08:06;;;;;;;4.60;2.60;;;40.70;25.10;;;;;;4996779;28;20248;-64
2022/05/23 12:10:54;;;;;;;3.78;2.40;;;40.20;25.40;;;;;;4996938;28;20189;-64
2022/05/23 12:13:49;;;;;;;6.40;2.75;;;39.60;26.30;;;;;;4996916;28;20239;-64
2022/05/23 12:16:26;;;;;;;2.72;2.30;;;39.10;26.60;;;;;;4996911;28;20216;-64
2022/05/23 12:19:13;;;;;;;2.60;2.40;;;38.50;27.20;;;;;;4996797;28;20318;-64
2022/05/23 12:21:44;;;;;;;4.50;2.40;;;38.00;28.20;;;;;;4996720;28;20208;-64
2022/05/23 12:24:18;;;;;;;4.30;2.73;;;37.40;29.00;;;;;;4997142;28;20184;-64
2022/05/23 12:26:50;;;;;;;4.23;3.17;;;36.80;29.00;;;;;;4997556;28;20195;-65
2022/05/23 12:29:32;;;;;;;4.60;3.30;;;36.10;30.00;;;;;;4997615;28;20599;-64
2022/05/23 12:32:27;;;;;;;5.20;3.10;;;35.40;31.10;;;;;;4997920;28;20451;-64
2022/05/23 12:34:59;;;;;;;4.50;2.70;;;34.70;32.60;;;;;;4997649;28;20971;-64
2022/05/23 12:37:30;;;;;;;5.33;3.50;;;34.20;33.80;;;;;;4997677;28;20821;-64
2022/05/23 12:40:18;;;;;;;7.37;3.30;;;33.90;34.90;;;;;;4998200;28;20431;-64
2022/05/23 12:43:03;;;;;;;5.50;3.53;;;33.50;35.70;;;;;;4999389;28;20436;-64
2022/05/23 12:45:58;;;;;;;4.43;2.73;;;33.10;35.90;;;;;;4996216;28;20490;-64
2022/05/23 12:48:50;;;;;;;5.20;3.93;;;32.50;37.30;;;;;;4996019;28;20483;-64
2022/05/23 12:55:02;;;;;;;5.70;3.00;;;31.30;39.40;;;;;;4995843;28;20447;-64
2022/05/23 12:57:54;;;;;;;3.87;3.00;;;30.50;40.90;;;;;;4995872;28;20531;-64
2022/05/23 13:00:23;;;;;;;8.87;2.93;;;30.10;42.10;;;;;;4995707;28;20843;-66
2022/05/23 13:02:56;;;;;;;5.27;3.53;;;29.70;43.00;;;;;;4995893;28;20428;-64
2022/05/23 13:05:33;;;;;;;5.03;2.93;;;29.20;43.80;;;;;;4995922;28;20432;-64
2022/05/23 13:08:02;;;;;;;6.93;2.70;;;28.80;45.10;;;;;;4995615;28;20506;-64
2022/05/23 13:10:34;;;;;;;7.20;3.20;;;28.30;46.90;;;;;;4995644;28;20440;-64
2022/05/23 13:13:06;;;;;;;7.03;3.47;;;27.90;47.40;;;;;;4995368;28;20909;-64
2022/05/23 13:15:34;;;;;;;8.03;3.40;;;27.40;48.50;;;;;;4995603;28;20441;-66
2022/05/23 13:23:37;;;;;;;8.43;3.37;;;26.70;53.80;;;;;;4995772;28;20406;-67
2022/05/23 13:26:08;;;;;;;6.50;3.60;;;26.50;56.30;;;;;;4995264;28;20444;-66
2022/05/23 13:28:41;;;;;;;7.60;4.30;;;26.40;57.60;;;;;;4995290;28;20475;-66
2022/05/23 13:31:24;;;;;;;10.23;4.10;;;26.30;58.90;;;;;;4995246;28;20531;-66
2022/05/23 13:33:51;;;;;;;9.83;4.50;;;26.20;61.00;;;;;;4994925;28;20910;-66
2022/05/23 13:36:17;;;;;;;6.60;4.23;;;26.00;62.80;;;;;;4995462;28;20459;-67
2022/05/23 13:39:01;;;;;;;7.03;4.20;;;26.00;66.00;;;;;;4995070;28;20472;-67
2022/05/23 13:41:31;;;;;;;8.90;4.60;;;25.90;68.20;;;;;;4995326;28;20473;-66
2022/05/23 13:43:59;;;;;;;7.03;3.93;;;25.80;69.60;;;;;;4995333;28;20436;-66
2022/05/23 13:46:31;;;;;;;11.97;4.73;;;25.70;70.20;;;;;;4995220;28;20448;-66
2022/05/23 13:49:02;;;;;;;11.47;4.37;;;25.80;71.30;;;;;;4995651;28;20468;-66
2022/05/23 13:51:32;;;;;;;9.03;4.40;;;25.90;70.90;;;;;;4994564;28;20429;-66
2022/05/23 13:54:04;;;;;;;7.40;4.20;;;26.20;70.60;;;;;;4994825;28;20445;-66
2022/05/23 13:56:32;;;;;;;7.73;4.00;;;26.60;69.70;;;;;;4994869;28;20444;-66
2022/05/23 13:59:05;;;;;;;4.17;3.20;;;27.10;67.40;;;;;;4994870;28;20469;-66
2022/05/23 14:01:37;;;;;;;7.20;4.33;;;27.30;63.50;;;;;;4994414;28;21006;-66
2022/05/23 14:04:09;;;;;;;8.90;3.40;;;27.70;63.10;;;;;;4994650;28;20906;-66
2022/05/23 14:06:41;;;;;;;6.00;3.27;;;28.20;61.30;;;;;;4995219;28;20433;-66
2022/05/23 14:09:09;;;;;;;7.57;4.33;;;28.70;58.10;;;;;;4994623;28;20480;-66